createdAt,value
2023-02-23T00:01:29.405Z,21.00
2023-02-23T00:03:59.460Z,20.20
2023-02-23T00:06:30.926Z,20.00
2023-02-23T00:09:01.833Z,19.60
2023-02-23T00:11:30.526Z,20.60
2023-02-23T00:14:01.488Z,20.00
2023-02-23T00:16:31.298Z,19.00
2023-02-23T00:19:00.750Z,20.20
2023-02-23T00:21:35.269Z,23.70
2023-02-23T00:24:08.611Z,23.60
2023-02-23T00:26:39.619Z,23.40
2023-02-23T00:29:18.464Z,20.80
2023-02-23T00:31:48.155Z,20.60
2023-02-23T00:34:21.414Z,19.80
2023-02-23T00:36:54.744Z,20.60
2023-02-23T00:39:29.584Z,21.50
2023-02-23T00:42:03.667Z,19.90
2023-02-23T00:44:34.438Z,21.90
2023-02-23T00:47:04.811Z,21.00
2023-02-23T00:49:34.474Z,21.80
2023-02-23T00:52:05.724Z,21.80
2023-02-23T00:54:35.131Z,20.40
2023-02-23T00:57:03.709Z,20.50
2023-02-23T00:59:33.030Z,19.70
2023-02-23T01:02:02.499Z,19.70
2023-02-23T01:04:31.212Z,19.80
2023-02-23T01:07:00.120Z,21.40
2023-02-23T01:09:29.900Z,20.40
2023-02-23T01:12:02.190Z,19.80
2023-02-23T01:14:31.536Z,19.90
2023-02-23T01:17:00.584Z,19.60
2023-02-23T01:19:29.288Z,20.30
2023-02-23T01:21:58.179Z,19.90
2023-02-23T01:24:26.735Z,20.00
2023-02-23T01:26:58.561Z,21.30
2023-02-23T01:29:28.922Z,19.80
2023-02-23T01:31:57.547Z,20.60
2023-02-23T01:34:26.254Z,20.20
2023-02-23T01:36:55.493Z,20.30
2023-02-23T01:39:29.721Z,21.40
2023-02-23T01:44:31.613Z,21.80
2023-02-23T01:47:00.577Z,22.10
2023-02-23T01:49:35.214Z,23.20
2023-02-23T01:52:15.130Z,25.10
2023-02-23T01:54:51.675Z,23.60
2023-02-23T01:57:25.248Z,24.20
2023-02-23T01:59:55.936Z,25.40
2023-02-23T02:02:34.029Z,25.30
2023-02-23T02:05:05.840Z,25.10
2023-02-23T02:07:35.644Z,24.10
2023-02-23T02:10:13.506Z,26.80
2023-02-23T02:12:52.191Z,27.10
2023-02-23T02:15:26.608Z,27.30
2023-02-23T02:18:24.143Z,27.70
2023-02-23T02:21:08.165Z,29.20
2023-02-23T02:23:59.310Z,27.80
2023-02-23T02:26:45.835Z,26.00
2023-02-23T02:29:47.364Z,25.40
2023-02-23T02:32:45.001Z,25.70
2023-02-23T02:35:19.219Z,26.30
2023-02-23T02:37:57.795Z,25.10
2023-02-23T02:40:53.601Z,26.50
2023-02-23T02:43:54.965Z,25.60
2023-02-23T02:46:30.995Z,26.80
2023-02-23T02:49:12.722Z,27.00
2023-02-23T02:51:49.450Z,27.40
2023-02-23T02:54:37.630Z,25.80
2023-02-23T02:57:08.058Z,26.30
2023-02-23T03:00:06.669Z,26.40
2023-02-23T03:02:57.635Z,25.20
2023-02-23T03:05:50.930Z,23.80
2023-02-23T03:09:07.146Z,25.10
2023-02-23T03:12:12.277Z,27.30
2023-02-23T03:15:18.977Z,25.80
2023-02-23T03:18:28.196Z,28.40
2023-02-23T03:21:22.631Z,27.20
2023-02-23T03:24:27.921Z,27.60
2023-02-23T03:27:55.285Z,27.90
2023-02-23T03:30:55.449Z,26.50
2023-02-23T03:33:55.706Z,25.50
2023-02-23T03:36:50.206Z,26.20
2023-02-23T03:40:18.967Z,28.80
2023-02-23T03:43:11.167Z,28.50
2023-02-23T03:46:00.358Z,26.50
2023-02-23T03:48:50.426Z,26.30
2023-02-23T03:54:37.843Z,26.20
2023-02-23T03:57:30.231Z,26.80
2023-02-23T04:00:22.852Z,26.90
2023-02-23T04:03:12.334Z,26.20
2023-02-23T04:06:01.243Z,21.00
2023-02-23T04:08:56.405Z,28.50
2023-02-23T04:11:53.481Z,28.50
2023-02-23T04:14:40.108Z,29.00
2023-02-23T04:17:10.437Z,27.80
2023-02-23T04:19:39.415Z,27.90
2023-02-23T04:22:08.066Z,28.30
2023-02-23T04:24:36.837Z,30.80
2023-02-23T04:27:06.649Z,29.10
2023-02-23T04:29:39.188Z,28.50
2023-02-23T04:34:42.758Z,27.20
2023-02-23T04:37:12.332Z,26.40
2023-02-23T04:39:40.993Z,20.90
2023-02-23T04:42:10.612Z,29.80
2023-02-23T04:44:39.888Z,28.50
2023-02-23T04:47:08.481Z,27.50
2023-02-23T04:49:37.241Z,28.10
2023-02-23T04:52:07.041Z,27.50
2023-02-23T04:54:41.176Z,31.10
2023-02-23T04:57:10.709Z,28.40
2023-02-23T04:59:39.308Z,28.80
2023-02-23T05:02:08.501Z,29.60
2023-02-23T05:04:37.627Z,29.40
2023-02-23T05:07:06.345Z,24.00
2023-02-23T05:09:35.464Z,29.90
2023-02-23T05:12:04.305Z,31.50
2023-02-23T05:14:32.946Z,42.80
2023-02-23T05:17:01.648Z,38.10
2023-02-23T05:19:30.474Z,34.60
2023-02-23T05:21:59.346Z,32.00
2023-02-23T05:24:28.294Z,31.20
2023-02-23T05:26:57.121Z,31.00
2023-02-23T05:29:25.750Z,29.40
2023-02-23T05:31:55.142Z,31.50
2023-02-23T05:34:24.459Z,30.10
2023-02-23T05:36:54.558Z,44.40
2023-02-23T05:41:52.987Z,36.20
2023-02-23T05:44:21.562Z,33.30
2023-02-23T05:46:50.263Z,33.10
2023-02-23T05:49:19.477Z,23.10
2023-02-23T05:51:47.977Z,31.50
2023-02-23T05:54:17.032Z,30.90
2023-02-23T05:56:46.393Z,30.60
2023-02-23T05:59:18.002Z,31.00
2023-02-23T06:01:47.234Z,29.30
2023-02-23T06:04:16.021Z,30.20
2023-02-23T06:06:45.468Z,30.40
2023-02-23T06:09:14.534Z,31.30
2023-02-23T06:11:43.181Z,34.40
2023-02-23T06:14:12.378Z,34.00
2023-02-23T06:16:41.779Z,34.60
2023-02-23T06:19:10.842Z,33.20
2023-02-23T06:21:39.529Z,32.90
2023-02-23T06:24:09.231Z,35.80
2023-02-23T06:26:38.258Z,36.90
2023-02-23T06:29:08.622Z,36.60
2023-02-23T06:31:37.391Z,37.00
2023-02-23T06:34:06.044Z,42.20
2023-02-23T06:36:35.147Z,44.10
2023-02-23T06:39:04.372Z,45.10
2023-02-23T06:41:33.771Z,42.30
2023-02-23T06:44:03.113Z,33.40
2023-02-23T06:46:33.717Z,38.80
2023-02-23T06:49:02.609Z,35.00
2023-02-23T06:51:31.613Z,32.20
2023-02-23T06:54:00.537Z,34.00
2023-02-23T06:56:29.161Z,36.90
2023-02-23T06:58:58.386Z,37.80
2023-02-23T07:01:27.479Z,35.80
2023-02-23T07:03:56.245Z,34.40
2023-02-23T07:06:25.436Z,31.60
2023-02-23T07:08:58.260Z,31.80
2023-02-23T07:11:26.932Z,33.00
2023-02-23T07:14:01.764Z,30.90
2023-02-23T07:16:31.464Z,43.60
2023-02-23T07:19:00.144Z,43.00
2023-02-23T07:21:29.078Z,31.20
2023-02-23T07:23:58.330Z,34.10
2023-02-23T07:26:28.009Z,32.00
2023-02-23T07:28:56.624Z,33.90
2023-02-23T07:31:26.964Z,33.90
2023-02-23T07:33:55.877Z,32.50
2023-02-23T07:36:25.182Z,32.90
2023-02-23T07:38:54.852Z,30.50
2023-02-23T07:41:24.226Z,31.30
2023-02-23T07:43:52.777Z,32.40
2023-02-23T07:46:22.659Z,32.50
2023-02-23T07:51:21.026Z,33.40
2023-02-23T07:53:50.306Z,36.10
2023-02-23T07:56:19.543Z,34.00
2023-02-23T07:58:48.352Z,38.10
2023-02-23T08:01:17.627Z,37.60
2023-02-23T08:06:20.678Z,34.20
2023-02-23T08:08:49.512Z,54.60
2023-02-23T08:11:18.442Z,36.10
2023-02-23T08:13:47.962Z,35.50
2023-02-23T08:16:18.931Z,44.20
2023-02-23T08:18:47.659Z,42.90
2023-02-23T08:21:16.952Z,37.30
2023-02-23T08:23:46.197Z,37.20
2023-02-23T08:26:14.864Z,45.10
2023-02-23T08:28:46.366Z,51.20
2023-02-23T08:31:19.030Z,70.60
2023-02-23T08:33:48.332Z,46.20
2023-02-23T08:36:17.221Z,46.90
2023-02-23T08:38:45.888Z,39.20
2023-02-23T08:41:15.515Z,36.00
2023-02-23T08:43:44.394Z,30.70
2023-02-23T08:46:13.495Z,32.30
2023-02-23T08:48:43.099Z,30.80
2023-02-23T08:51:11.890Z,31.10
2023-02-23T08:53:41.878Z,30.10
2023-02-23T08:56:16.057Z,30.00
2023-02-23T08:58:59.746Z,31.10
2023-02-23T09:01:37.502Z,29.20
2023-02-23T09:04:07.195Z,31.20
2023-02-23T09:09:06.247Z,28.60
2023-02-23T09:11:35.022Z,28.60
2023-02-23T09:14:04.264Z,29.30
2023-02-23T09:16:34.107Z,31.00
2023-02-23T09:19:04.048Z,29.60
2023-02-23T09:21:34.819Z,30.30
2023-02-23T09:26:33.735Z,26.10
2023-02-23T09:31:32.486Z,25.90
2023-02-23T09:34:02.211Z,29.80
2023-02-23T09:36:31.963Z,30.10
2023-02-23T09:39:01.135Z,30.40
2023-02-23T09:42:04.171Z,30.10
2023-02-23T09:44:58.113Z,26.20
2023-02-23T09:47:52.511Z,24.70
2023-02-23T09:50:24.000Z,39.00
2023-02-23T09:53:04.913Z,26.20
2023-02-23T09:55:34.191Z,25.20
2023-02-23T09:58:09.222Z,26.00
2023-02-23T10:00:44.652Z,29.00
2023-02-23T10:03:28.756Z,27.70
2023-02-23T10:06:09.352Z,32.20
2023-02-23T10:11:42.231Z,23.90
2023-02-23T10:14:23.053Z,20.40
2023-02-23T10:17:16.727Z,27.70
2023-02-23T10:19:56.953Z,27.30
2023-02-23T10:22:26.876Z,26.40
2023-02-23T10:25:10.275Z,27.10
2023-02-23T10:27:45.639Z,35.10
2023-02-23T10:30:40.586Z,34.30
2023-02-23T10:33:29.005Z,60.20
2023-02-23T10:36:13.312Z,46.50
2023-02-23T10:38:42.718Z,15.70
2023-02-23T10:41:14.932Z,10.20
2023-02-23T10:43:43.989Z,8.70
2023-02-23T10:46:22.887Z,9.60
2023-02-23T10:48:56.005Z,10.20
2023-02-23T10:51:34.972Z,10.30
2023-02-23T10:54:36.457Z,10.20
2023-02-23T10:57:08.182Z,9.70
2023-02-23T10:59:37.222Z,11.00
2023-02-23T11:02:25.982Z,10.40
2023-02-23T11:04:57.868Z,9.90
2023-02-23T11:07:32.450Z,10.20
2023-02-23T11:10:26.234Z,13.40
2023-02-23T11:12:55.564Z,9.60
2023-02-23T11:15:49.913Z,8.70
2023-02-23T11:18:24.324Z,7.60
2023-02-23T11:20:55.046Z,8.60
2023-02-23T11:23:31.842Z,8.60
2023-02-23T11:26:03.896Z,8.00
2023-02-23T11:28:36.626Z,12.50
2023-02-23T11:31:26.648Z,12.20
2023-02-23T11:33:57.716Z,16.00
2023-02-23T11:36:43.501Z,24.00
2023-02-23T11:39:25.062Z,17.00
2023-02-23T11:42:15.931Z,17.60
2023-02-23T11:44:50.893Z,24.70
2023-02-23T11:47:23.211Z,18.60
2023-02-23T11:49:52.510Z,35.60
2023-02-23T11:52:23.987Z,29.80
2023-02-23T11:55:02.280Z,12.30
2023-02-23T11:57:34.930Z,14.40
2023-02-23T12:00:21.668Z,8.40
2023-02-23T12:02:55.828Z,7.30
2023-02-23T12:05:30.169Z,7.10
2023-02-23T12:08:03.063Z,8.80
2023-02-23T12:10:51.166Z,11.90
2023-02-23T12:13:39.925Z,9.20
2023-02-23T12:16:25.445Z,11.40
2023-02-23T12:19:00.497Z,8.80
2023-02-23T12:21:47.060Z,9.90
2023-02-23T12:24:36.146Z,13.50
2023-02-23T12:27:14.013Z,10.10
2023-02-23T12:30:17.132Z,9.10
2023-02-23T12:33:12.366Z,12.50
2023-02-23T12:36:21.430Z,11.30
2023-02-23T12:39:34.484Z,17.90
2023-02-23T12:42:40.272Z,10.70
2023-02-23T12:45:27.229Z,11.10
2023-02-23T12:48:30.067Z,17.90
2023-02-23T12:51:02.771Z,14.90
2023-02-23T12:53:39.990Z,14.80
2023-02-23T12:56:33.942Z,14.90
2023-02-23T12:59:19.524Z,12.30
2023-02-23T13:02:18.950Z,15.80
2023-02-23T13:05:18.568Z,14.80
2023-02-23T13:07:57.137Z,14.60
2023-02-23T13:10:50.284Z,16.00
2023-02-23T13:13:42.807Z,9.80
2023-02-23T13:16:34.590Z,15.10
2023-02-23T13:19:22.036Z,15.90
2023-02-23T13:22:17.148Z,18.60
2023-02-23T13:24:49.774Z,17.40
2023-02-23T13:27:36.493Z,14.40
2023-02-23T13:30:09.743Z,14.10
2023-02-23T13:32:40.082Z,15.30
2023-02-23T13:35:17.288Z,12.40
2023-02-23T13:37:53.902Z,11.10
2023-02-23T13:40:51.249Z,12.90
2023-02-23T13:43:43.507Z,12.90
2023-02-23T13:46:27.106Z,12.00
2023-02-23T13:49:28.752Z,14.80
2023-02-23T13:52:11.402Z,16.70
2023-02-23T13:54:57.378Z,17.60
2023-02-23T13:57:28.952Z,11.70
2023-02-23T13:59:58.783Z,15.90
2023-02-23T14:02:39.913Z,14.70
2023-02-23T14:05:19.986Z,17.00
2023-02-23T14:07:54.926Z,19.10
2023-02-23T14:10:30.145Z,16.00
2023-02-23T14:13:25.356Z,11.90
2023-02-23T14:16:15.981Z,13.60
2023-02-23T14:18:58.317Z,17.40
2023-02-23T14:21:33.790Z,16.70
2023-02-23T14:24:27.516Z,19.90
2023-02-23T14:27:42.240Z,12.70
2023-02-23T14:30:11.773Z,14.00
2023-02-23T14:32:46.669Z,19.40
2023-02-23T14:35:36.936Z,23.60
2023-02-23T14:38:13.952Z,24.40
2023-02-23T14:40:49.330Z,30.80
2023-02-23T14:43:51.740Z,45.60
2023-02-23T14:46:24.071Z,25.10
2023-02-23T14:49:19.531Z,21.30
2023-02-23T14:52:04.820Z,25.50
2023-02-23T14:54:35.078Z,21.30
2023-02-23T14:57:26.783Z,21.10
2023-02-23T15:00:02.158Z,25.90
2023-02-23T15:02:31.880Z,24.90
2023-02-23T15:05:15.490Z,25.80
2023-02-23T15:07:46.126Z,25.50
2023-02-23T15:10:28.507Z,27.50
2023-02-23T15:12:58.175Z,27.20
2023-02-23T15:15:28.076Z,19.70
2023-02-23T15:18:01.501Z,23.10
2023-02-23T15:23:05.138Z,31.30
2023-02-23T15:25:40.120Z,21.40
2023-02-23T15:28:21.335Z,16.30
2023-02-23T15:30:51.916Z,25.90
2023-02-23T15:33:29.060Z,32.10
2023-02-23T15:36:16.111Z,39.20
2023-02-23T15:38:51.761Z,33.90
2023-02-23T15:41:38.609Z,28.20
2023-02-23T15:44:15.951Z,19.80
2023-02-23T15:46:48.903Z,18.50
2023-02-23T15:49:20.780Z,18.60
2023-02-23T15:51:53.473Z,19.60
2023-02-23T15:54:28.479Z,19.70
2023-02-23T15:57:02.686Z,19.20
2023-02-23T15:59:37.152Z,23.50
2023-02-23T16:02:17.036Z,47.90
2023-02-23T16:04:54.330Z,46.20
2023-02-23T16:07:26.337Z,40.10
2023-02-23T16:10:04.649Z,28.40
2023-02-23T16:12:38.830Z,72.00
2023-02-23T16:15:27.588Z,33.20
2023-02-23T16:18:03.876Z,116.00
2023-02-23T16:20:47.100Z,32.80
2023-02-23T16:23:42.263Z,34.80
2023-02-23T16:26:18.607Z,34.10
2023-02-23T16:28:47.944Z,33.60
2023-02-23T16:31:26.409Z,40.00
2023-02-23T16:33:57.393Z,73.50
2023-02-23T16:36:40.105Z,51.30
2023-02-23T16:39:13.455Z,44.10
2023-02-23T16:41:43.024Z,40.30
2023-02-23T16:44:16.698Z,55.60
2023-02-23T16:46:54.548Z,35.60
2023-02-23T16:49:23.740Z,42.50
2023-02-23T16:51:52.502Z,58.10
2023-02-23T16:54:21.449Z,64.50
2023-02-23T16:56:55.658Z,67.20
2023-02-23T16:59:25.062Z,54.10
2023-02-23T17:01:54.542Z,61.10
2023-02-23T17:04:24.072Z,61.70
2023-02-23T17:06:58.081Z,47.20
2023-02-23T17:09:27.760Z,37.00
2023-02-23T17:11:58.148Z,35.00
2023-02-23T17:17:01.303Z,91.20
2023-02-23T17:19:30.381Z,65.10
2023-02-23T17:21:59.334Z,73.80
2023-02-23T17:24:28.282Z,49.70
2023-02-23T17:26:57.036Z,49.80
2023-02-23T17:29:25.969Z,51.90
2023-02-23T17:31:55.939Z,41.10
2023-02-23T17:34:26.735Z,38.30
2023-02-23T17:36:56.078Z,45.70
2023-02-23T17:39:28.556Z,45.90
2023-02-23T17:41:58.174Z,45.90
2023-02-23T17:44:26.664Z,43.20
2023-02-23T17:46:55.312Z,37.10
2023-02-23T17:49:25.755Z,47.20
2023-02-23T17:54:22.986Z,58.90
2023-02-23T17:56:53.033Z,41.00
2023-02-23T17:59:21.935Z,38.80
2023-02-23T18:01:50.965Z,42.40
2023-02-23T18:04:31.507Z,45.20
2023-02-23T18:07:17.180Z,42.40
2023-02-23T18:10:11.245Z,37.10
2023-02-23T18:12:59.690Z,30.40
2023-02-23T18:15:46.065Z,29.80
2023-02-23T18:18:48.599Z,29.30
2023-02-23T18:21:33.858Z,27.80
2023-02-23T18:24:23.600Z,26.10
2023-02-23T18:27:20.638Z,23.60
2023-02-23T18:30:13.593Z,34.20
2023-02-23T18:33:13.853Z,38.60
2023-02-23T18:36:09.017Z,49.40
2023-02-23T18:39:06.664Z,52.30
2023-02-23T18:42:00.844Z,49.10
2023-02-23T18:44:37.234Z,44.30
2023-02-23T18:47:06.295Z,53.70
2023-02-23T18:49:35.206Z,49.40
2023-02-23T18:52:09.632Z,48.00
2023-02-23T18:54:40.494Z,57.50
2023-02-23T18:57:09.184Z,42.30
2023-02-23T18:59:37.956Z,37.30
2023-02-23T19:02:07.407Z,41.70
2023-02-23T19:04:36.796Z,40.40
2023-02-23T19:07:05.871Z,46.50
2023-02-23T19:09:34.749Z,42.30
2023-02-23T19:12:03.991Z,32.30
2023-02-23T19:14:48.262Z,32.40
2023-02-23T19:17:19.618Z,37.00
2023-02-23T19:19:51.752Z,35.20
2023-02-23T19:22:21.504Z,41.90
2023-02-23T19:24:50.251Z,37.80
2023-02-23T19:27:19.583Z,35.70
2023-02-23T19:29:48.909Z,35.60
2023-02-23T19:32:18.540Z,36.60
2023-02-23T19:34:48.133Z,40.90
2023-02-23T19:37:17.048Z,59.60
2023-02-23T19:39:46.767Z,62.70
2023-02-23T19:42:19.054Z,43.30
2023-02-23T19:44:52.306Z,44.00
2023-02-23T19:47:22.043Z,42.30
2023-02-23T19:49:51.035Z,39.90
2023-02-23T19:52:19.651Z,40.70
2023-02-23T19:54:48.545Z,36.10
2023-02-23T19:57:17.448Z,35.00
2023-02-23T19:59:46.201Z,36.20
2023-02-23T20:02:16.873Z,36.60
2023-02-23T20:04:52.480Z,35.20
2023-02-23T20:07:21.508Z,35.40
2023-02-23T20:09:50.261Z,36.00
2023-02-23T20:12:19.232Z,36.90
2023-02-23T20:14:50.325Z,38.40
2023-02-23T20:17:19.181Z,37.90
2023-02-23T20:19:48.281Z,38.10
2023-02-23T20:22:17.392Z,38.20
2023-02-23T20:24:46.471Z,38.60
2023-02-23T20:27:15.188Z,38.70
2023-02-23T20:29:44.530Z,38.00
2023-02-23T20:32:13.565Z,38.80
2023-02-23T20:34:45.828Z,35.20
2023-02-23T20:37:14.643Z,42.20
2023-02-23T20:39:43.602Z,50.80
2023-02-23T20:42:12.728Z,44.60
2023-02-23T20:44:41.672Z,37.90
2023-02-23T20:47:11.785Z,34.20
2023-02-23T20:52:14.134Z,35.90
2023-02-23T20:54:42.960Z,34.50
2023-02-23T20:57:14.065Z,35.00
2023-02-23T20:59:46.035Z,37.60
2023-02-23T21:02:15.610Z,42.00
2023-02-23T21:04:45.280Z,49.40
2023-02-23T21:07:14.438Z,44.80
2023-02-23T21:09:43.758Z,41.10
2023-02-23T21:12:14.179Z,39.80
2023-02-23T21:17:11.497Z,38.70
2023-02-23T21:19:40.968Z,36.30
2023-02-23T21:22:09.865Z,25.90
2023-02-23T21:24:41.236Z,36.20
2023-02-23T21:27:13.730Z,36.10
2023-02-23T21:29:46.232Z,37.60
2023-02-23T21:34:46.374Z,36.30
2023-02-23T21:37:16.109Z,36.30
2023-02-23T21:39:47.349Z,34.20
2023-02-23T21:42:16.221Z,32.60
2023-02-23T21:44:45.990Z,32.80
2023-02-23T21:47:15.975Z,36.10
2023-02-23T21:49:49.607Z,40.60
2023-02-23T21:52:18.815Z,41.00
2023-02-23T21:54:53.105Z,35.10
2023-02-23T21:57:23.428Z,35.80
2023-02-23T21:59:53.265Z,35.80
2023-02-23T22:02:21.770Z,34.30
2023-02-23T22:04:51.397Z,33.00
2023-02-23T22:07:22.034Z,34.50
2023-02-23T22:09:50.882Z,33.40
2023-02-23T22:12:19.994Z,31.90
2023-02-23T22:14:49.031Z,33.40
2023-02-23T22:17:19.539Z,34.40
2023-02-23T22:19:51.238Z,33.80
2023-02-23T22:22:20.898Z,35.80
2023-02-23T22:24:50.394Z,34.40
2023-02-23T22:27:19.323Z,33.30
2023-02-23T22:29:48.263Z,32.80
2023-02-23T22:32:17.804Z,34.20
2023-02-23T22:34:46.922Z,77.10
2023-02-23T22:37:15.879Z,85.60
2023-02-23T22:39:45.098Z,43.80
2023-02-23T22:42:14.007Z,36.30
2023-02-23T22:44:42.973Z,35.90
2023-02-23T22:47:13.828Z,35.40
2023-02-23T22:49:42.545Z,34.20
2023-02-23T22:52:13.497Z,39.50
2023-02-23T22:54:46.013Z,40.60
2023-02-23T22:57:15.183Z,38.50
2023-02-23T22:59:55.206Z,26.40
2023-02-23T23:02:23.804Z,32.50
2023-02-23T23:04:55.019Z,31.60
2023-02-23T23:07:26.492Z,31.20
2023-02-23T23:09:55.603Z,33.20
2023-02-23T23:12:28.444Z,33.50
2023-02-23T23:15:01.552Z,32.20
2023-02-23T23:17:31.884Z,30.20
2023-02-23T23:20:01.280Z,30.50
2023-02-23T23:22:29.800Z,29.40
2023-02-23T23:24:58.959Z,31.50
2023-02-23T23:27:27.824Z,31.60
2023-02-23T23:29:56.433Z,30.40
2023-02-23T23:32:28.033Z,30.10
2023-02-23T23:34:58.801Z,30.60
2023-02-23T23:37:30.272Z,32.90
2023-02-23T23:40:14.354Z,31.30
2023-02-23T23:42:46.598Z,32.40
2023-02-23T23:45:17.822Z,32.80
2023-02-23T23:47:47.750Z,30.60
2023-02-23T23:50:17.550Z,31.40
2023-02-23T23:52:46.186Z,33.10
2023-02-23T23:55:15.868Z,34.30
2023-02-23T23:57:44.654Z,37.90
